Time;durP1;ratioP1;P1;durP2;ratioP2;P2;SDS_P1;SDS_P2;PMS_P1;PMS_P2;Temp;Humidity;BMP_temperature;BMP_pressure;BME280_temperature;BME280_humidity;BME280_pressure;Samples;Min_cycle;Max_cycle;Signal;HPM_P1;HPM_P2
2023/05/23 00:02:27;;;;;;;4.35;2.85;;;;;;;17.11;53.95;97383.84;10481932;28;20548;-71
2023/05/23 00:07:48;;;;;;;5.15;2.75;;;;;;;16.94;54.39;97370.53;10468712;28;20064;-71
2023/05/23 00:13:11;;;;;;;4.45;2.83;;;;;;;16.93;54.77;97396.56;10468234;28;20064;-70
2023/05/23 00:18:32;;;;;;;6.83;3.07;;;;;;;16.90;55.10;97386.59;10482328;28;20475;-70
2023/05/23 00:23:52;;;;;;;5.05;2.78;;;;;;;16.85;55.33;97389.25;10496702;28;20117;-71
2023/05/23 00:29:17;;;;;;;5.30;2.70;;;;;;;16.74;55.54;97381.78;10467711;28;20076;-70
2023/05/23 00:34:38;;;;;;;8.00;2.92;;;;;;;16.79;55.58;97382.66;10472758;28;20068;-70
2023/05/23 00:39:59;;;;;;;6.03;3.00;;;;;;;16.72;55.80;97381.00;10475037;28;20064;-70
2023/05/23 00:45:19;;;;;;;5.57;3.22;;;;;;;16.67;56.10;97371.63;10474923;28;20068;-70
2023/05/23 00:50:40;;;;;;;4.20;2.72;;;;;;;16.65;56.52;97365.19;10488769;28;20067;-70
2023/05/23 00:56:01;;;;;;;6.00;3.00;;;;;;;16.63;57.05;97371.47;10474630;28;20123;-70
2023/05/23 01:01:23;;;;;;;5.38;3.28;;;;;;;16.59;57.13;97366.41;10474173;28;20064;-70
2023/05/23 01:06:45;;;;;;;9.23;3.17;;;;;;;16.60;57.15;97350.97;10474178;28;20466;-70
2023/05/23 01:12:28;;;;;;;9.40;2.90;;;;;;;16.58;57.50;97342.41;10474160;28;20117;-70
2023/05/23 01:17:58;;;;;;;6.63;3.23;;;;;;;16.49;57.71;97331.47;10473944;28;20410;-70
2023/05/23 01:23:37;;;;;;;5.65;3.20;;;;;;;16.45;57.86;97334.88;10460697;28;20450;-70
2023/05/23 01:29:09;;;;;;;5.57;2.92;;;;;;;16.38;57.99;97335.28;10487231;28;20127;-70
2023/05/23 01:34:30;;;;;;;6.63;3.40;;;;;;;16.35;58.53;97337.31;10447913;28;20150;-70
2023/05/23 01:39:51;;;;;;;8.60;3.70;;;;;;;16.34;58.51;97357.69;10458973;28;20068;-70
2023/05/23 01:45:14;;;;;;;4.70;3.15;;;;;;;16.27;58.65;97359.53;10486534;28;20040;-70
2023/05/23 01:50:35;;;;;;;5.63;3.42;;;;;;;16.21;59.15;97348.75;10472698;28;20512;-70
2023/05/23 01:55:56;;;;;;;5.60;3.42;;;;;;;16.23;59.07;97365.00;10472361;28;20117;-71
2023/05/23 02:01:16;;;;;;;7.05;3.47;;;;;;;16.20;59.81;97395.16;10472158;28;20120;-70
2023/05/23 02:06:37;;;;;;;7.78;4.15;;;;;;;16.10;59.46;97389.13;10457952;28;20064;-70
2023/05/23 02:11:58;;;;;;;8.32;4.03;;;;;;;16.04;59.78;97391.72;10457771;28;20079;-70
2023/05/23 02:17:20;;;;;;;9.07;4.07;;;;;;;15.98;59.90;97403.44;10457579;28;20068;-70
2023/05/23 02:22:42;;;;;;;5.85;3.45;;;;;;;15.84;60.12;97402.88;10471456;28;20047;-70
2023/05/23 02:28:03;;;;;;;7.22;3.65;;;;;;;15.73;60.44;97398.91;10499682;28;20111;-70
2023/05/23 02:33:23;;;;;;;8.75;3.88;;;;;;;15.65;60.21;97395.03;10484792;28;20166;-70
2023/05/23 02:38:44;;;;;;;6.30;3.83;;;;;;;15.55;60.31;97400.19;10456699;28;20079;-70
2023/05/23 02:44:05;;;;;;;12.50;3.78;;;;;;;15.46;60.62;97402.66;10456671;28;20115;-70
2023/05/23 02:49:26;;;;;;;9.23;3.80;;;;;;;15.46;61.01;97397.03;10470367;28;20132;-71
2023/05/23 02:54:47;;;;;;;9.50;4.30;;;;;;;15.51;61.36;97383.13;10483047;28;20446;-70
2023/05/23 03:00:09;;;;;;;9.65;4.00;;;;;;;15.51;60.69;97369.78;10469875;28;20111;-70
2023/05/23 03:05:30;;;;;;;6.68;3.65;;;;;;;15.53;60.79;97363.53;10469520;28;20124;-70
2023/05/23 03:10:51;;;;;;;6.28;3.72;;;;;;;15.47;60.83;97380.88;10469391;28;20115;-70
2023/05/23 03:16:11;;;;;;;9.80;4.10;;;;;;;15.50;60.85;97365.53;10483152;28;20498;-70
2023/05/23 03:21:34;;;;;;;9.23;3.60;;;;;;;15.48;61.18;97359.81;10455617;28;20122;-70
2023/05/23 03:26:54;;;;;;;9.73;4.30;;;;;;;15.57;61.04;97356.00;10455492;28;20044;-70
2023/05/23 03:32:16;;;;;;;6.38;4.03;;;;;;;15.59;60.84;97358.88;10455143;28;20045;-70
2023/05/23 03:37:37;;;;;;;5.35;3.60;;;;;;;15.62;60.94;97346.38;10455375;28;20068;-70
2023/05/23 03:43:05;;;;;;;8.45;3.65;;;;;;;15.81;60.88;97356.28;10454656;28;20049;-70
2023/05/23 03:48:29;;;;;;;6.07;3.97;;;;;;;15.92;60.42;97343.34;10468706;28;20125;-70
2023/05/23 03:53:50;;;;;;;8.80;4.05;;;;;;;15.96;60.38;97332.28;10468552;28;20036;-70
2023/05/23 03:59:10;;;;;;;7.15;3.50;;;;;;;15.98;60.21;97340.78;10481820;28;20194;-70
2023/05/23 04:04:31;;;;;;;12.00;3.85;;;;;;;16.09;60.41;97337.00;10481999;28;20128;-70
2023/05/23 04:09:52;;;;;;;8.45;3.90;;;;;;;16.28;60.11;97338.44;10460911;28;20565;-70
2023/05/23 04:15:13;;;;;;;5.70;3.58;;;;;;;16.49;60.00;97345.56;10462529;28;20075;-70
2023/05/23 04:20:54;;;;;;;10.48;3.88;;;;;;;16.60;59.69;97350.97;10500548;28;20391;-70
2023/05/23 04:26:15;;;;;;;5.88;3.70;;;;;;;16.82;59.33;97347.53;10489282;28;20119;-70
2023/05/23 04:31:44;;;;;;;7.30;4.20;;;;;;;16.80;58.47;97334.09;10463253;28;20143;-70
2023/05/23 04:37:08;;;;;;;7.45;3.58;;;;;;;16.58;58.73;97341.69;10462040;28;20079;-70
2023/05/23 04:42:29;;;;;;;8.23;4.10;;;;;;;16.64;58.58;97339.09;10475707;28;20444;-70
2023/05/23 04:48:20;;;;;;;7.57;4.38;;;;;;;16.56;58.55;97333.16;10469050;28;20086;-70
2023/05/23 04:53:43;;;;;;;8.35;3.85;;;;;;;16.55;58.65;97320.47;10461784;28;20112;-70
2023/05/23 04:59:04;;;;;;;11.32;4.50;;;;;;;16.82;58.72;97310.91;10475113;28;20068;-70
2023/05/23 05:04:27;;;;;;;6.85;4.55;;;;;;;17.19;58.55;97304.47;10461313;28;20131;-70
2023/05/23 05:09:48;;;;;;;7.57;4.80;;;;;;;17.74;57.79;97303.50;10488592;28;20067;-70
2023/05/23 05:15:12;;;;;;;8.95;4.13;;;;;;;17.82;57.64;97317.16;10488372;28;20048;-70
2023/05/23 05:20:35;;;;;;;13.60;4.00;;;;;;;18.36;57.00;97314.59;10473302;28;20068;-70
2023/05/23 05:25:56;;;;;;;7.57;4.43;;;;;;;19.01;56.70;97319.31;10446379;28;20067;-70
2023/05/23 05:31:17;;;;;;;8.38;4.78;;;;;;;19.92;55.05;97327.38;10473566;28;20537;-70
2023/05/23 05:36:45;;;;;;;6.40;3.45;;;;;;;20.69;53.70;97339.78;10473280;28;20044;-70
2023/05/23 05:42:08;;;;;;;7.50;4.50;;;;;;;21.29;52.80;97342.44;10460700;28;20048;-70
2023/05/23 05:47:30;;;;;;;6.47;4.18;;;;;;;22.10;51.70;97345.28;10473151;28;20036;-70
2023/05/23 05:52:52;;;;;;;6.13;3.85;;;;;;;22.87;50.20;97340.00;10472805;28;20105;-70
2023/05/23 05:58:13;;;;;;;8.70;4.35;;;;;;;23.18;48.95;97329.72;10472617;28;20037;-70
2023/05/23 06:03:49;;;;;;;5.60;3.28;;;;;;;23.39;47.75;97351.31;10485894;28;20111;-70
2023/05/23 06:09:12;;;;;;;9.05;3.42;;;;;;;24.34;46.84;97351.50;10472022;28;20047;-70
2023/05/23 06:14:33;;;;;;;7.72;4.00;;;;;;;25.05;45.02;97368.34;10444321;28;20044;-70
2023/05/23 06:19:55;;;;;;;8.33;4.03;;;;;;;24.54;43.46;97379.44;10471664;28;20498;-70
2023/05/23 06:25:16;;;;;;;7.88;3.60;;;;;;;23.79;44.05;97388.06;10471326;28;20064;-70
2023/05/23 06:30:39;;;;;;;10.05;4.47;;;;;;;23.08;44.48;97365.19;10485040;28;20475;-70
2023/05/23 06:36:01;;;;;;;9.93;4.53;;;;;;;22.57;44.76;97372.28;10484595;28;20041;-70
2023/05/23 06:41:24;;;;;;;9.05;3.90;;;;;;;21.89;45.45;97376.19;10484555;28;20068;-70
2023/05/23 06:46:46;;;;;;;10.60;4.28;;;;;;;21.28;45.40;97383.59;10470644;28;20111;-70
2023/05/23 06:52:07;;;;;;;11.13;4.63;;;;;;;20.64;46.64;97392.13;10470355;28;20098;-70
2023/05/23 06:57:29;;;;;;;10.55;4.35;;;;;;;20.63;47.96;97392.81;10470284;28;20123;-70
2023/05/23 07:02:50;;;;;;;6.85;3.75;;;;;;;21.47;47.49;97392.47;10469799;28;20092;-70
2023/05/23 07:08:14;;;;;;;11.27;4.50;;;;;;;22.38;46.73;97396.19;10470352;28;20071;-70
2023/05/23 07:13:46;;;;;;;7.47;4.03;;;;;;;22.90;45.87;97390.56;10471262;28;20123;-70
2023/05/23 07:19:14;;;;;;;8.85;3.88;;;;;;;22.84;45.25;97401.88;10470288;28;20040;-70
2023/05/23 07:24:42;;;;;;;9.45;4.05;;;;;;;22.70;44.71;97408.06;10457459;28;20067;-70
2023/05/23 07:30:06;;;;;;;5.93;3.55;;;;;;;22.54;44.48;97405.69;10498056;28;20044;-70
2023/05/23 07:35:28;;;;;;;7.90;3.50;;;;;;;22.87;44.27;97422.53;10470198;28;20049;-70
2023/05/23 07:40:50;;;;;;;10.02;3.78;;;;;;;23.38;43.64;97421.78;10454896;28;20048;-70
2023/05/23 07:46:30;;;;;;;10.48;3.80;;;;;;;24.34;42.41;97419.25;10485599;28;20048;-71
2023/05/23 07:51:51;;;;;;;6.53;3.38;;;;;;;25.88;40.91;97419.34;10468831;28;20044;-71
2023/05/23 07:57:14;;;;;;;7.18;3.63;;;;;;;27.83;38.38;97424.78;10482318;28;20474;-70
2023/05/23 08:02:36;;;;;;;9.43;4.05;;;;;;;28.83;35.04;97426.88;10468989;28;20482;-70
2023/05/23 08:07:57;;;;;;;8.18;3.50;;;;;;;29.73;33.79;97437.41;10482398;28;20040;-71
2023/05/23 08:13:19;;;;;;;6.63;3.20;;;;;;;29.77;31.99;97434.47;10468288;28;20060;-70
2023/05/23 08:19:00;;;;;;;7.00;3.55;;;;;;;29.06;32.86;97444.63;10496936;28;20044;-71
2023/05/23 08:24:21;;;;;;;8.13;3.43;;;;;;;27.95;33.11;97447.63;10468040;28;20395;-70
2023/05/23 08:29:43;;;;;;;7.33;3.30;;;;;;;26.45;33.75;97451.63;10454195;28;20398;-71
2023/05/23 08:35:04;;;;;;;5.78;3.35;;;;;;;25.69;36.15;97461.44;10454351;28;20056;-70
2023/05/23 08:40:26;;;;;;;5.95;3.58;;;;;;;25.22;37.47;97452.66;10454101;28;20069;-70
2023/05/23 08:45:52;;;;;;;7.35;3.17;;;;;;;24.69;37.87;97460.88;10468384;28;20047;-70
2023/05/23 08:51:14;;;;;;;7.17;3.00;;;;;;;24.59;38.56;97474.34;10454055;28;20051;-70
2023/05/23 08:56:35;;;;;;;5.22;2.97;;;;;;;24.28;38.99;97486.19;10459586;28;20295;-70
2023/05/23 09:01:56;;;;;;;4.23;3.50;;;;;;;23.39;39.00;97488.72;10447087;28;20052;-70
2023/05/23 09:07:18;;;;;;;5.38;3.50;;;;;;;22.56;41.08;97496.00;10474615;28;20110;-70
2023/05/23 09:12:40;;;;;;;8.32;4.20;;;;;;;21.74;43.07;97484.56;10474694;28;20597;-70
2023/05/23 09:18:02;;;;;;;7.65;4.40;;;;;;;20.55;46.46;97496.13;10474258;28;20168;-70
2023/05/23 09:23:24;;;;;;;9.10;4.47;;;;;;;20.34;49.94;97496.28;10487808;28;20522;-70
2023/05/23 09:28:45;;;;;;;9.55;4.97;;;;;;;20.29;50.62;97496.19;10459839;28;20116;-70
2023/05/23 09:34:09;;;;;;;6.80;4.35;;;;;;;20.09;51.22;97495.66;10487629;28;20143;-70
2023/05/23 09:39:36;;;;;;;9.98;4.80;;;;;;;19.83;52.49;97498.50;10473816;28;20060;-70
2023/05/23 09:44:57;;;;;;;7.13;5.07;;;;;;;19.67;52.68;97498.75;10459749;28;20043;-70
2023/05/23 09:50:18;;;;;;;6.45;4.57;;;;;;;19.61;53.62;97501.44;10459340;28;20071;-70
2023/05/23 09:55:39;;;;;;;7.53;4.93;;;;;;;19.69;54.66;97503.78;10458917;28;20048;-70
2023/05/23 10:01:03;;;;;;;5.82;4.75;;;;;;;19.80;54.49;97514.00;10472427;28;20053;-70
2023/05/23 10:06:31;;;;;;;9.40;5.57;;;;;;;20.22;55.39;97508.03;10472915;28;20050;-70
2023/05/23 10:12:33;;;;;;;6.50;5.07;;;;;;;21.02;55.16;97513.53;10486249;28;20067;-70
2023/05/23 10:18:02;;;;;;;35.30;10.88;;;;;;;21.22;55.31;97518.94;10500729;28;20537;-70
2023/05/23 10:23:23;;;;;;;12.27;6.15;;;;;;;21.69;57.30;97507.19;10458340;28;20087;-70
2023/05/23 10:28:44;;;;;;;11.05;7.57;;;;;;;22.93;56.04;97503.03;10471315;28;20542;-70
2023/05/23 10:34:11;;;;;;;10.38;7.38;;;;;;;23.61;55.20;97499.69;10471162;28;20398;-70
2023/05/23 10:39:49;;;;;;;8.77;7.60;;;;;;;22.80;55.17;97499.25;10484611;28;20045;-70
2023/05/23 10:45:23;;;;;;;8.93;7.40;;;;;;;21.88;56.71;97494.06;10471481;28;20501;-69
2023/05/23 10:50:45;;;;;;;13.77;7.63;;;;;;;21.45;57.35;97500.31;10472107;28;20398;-70
2023/05/23 10:56:10;;;;;;;11.60;8.70;;;;;;;21.07;57.91;97492.38;10470115;28;20041;-70
2023/05/23 11:01:31;;;;;;;9.57;7.88;;;;;;;20.74;59.10;97505.06;10442062;28;20064;-70
2023/05/23 11:06:55;;;;;;;10.07;7.95;;;;;;;20.56;59.25;97505.38;10498476;28;20095;-70
2023/05/23 11:12:16;;;;;;;9.30;8.20;;;;;;;20.48;59.69;97510.84;10456353;28;20071;-70
2023/05/23 11:17:37;;;;;;;8.18;7.20;;;;;;;20.55;60.17;97503.91;10482347;28;20068;-70
2023/05/23 11:23:02;;;;;;;10.75;8.23;;;;;;;20.33;60.19;97503.34;10455274;28;20099;-70
2023/05/23 11:28:23;;;;;;;11.95;8.90;;;;;;;20.23;60.90;97507.34;10469303;28;20479;-70
2023/05/23 11:33:44;;;;;;;11.95;8.30;;;;;;;20.18;61.45;97500.16;10469081;28;20067;-70
2023/05/23 11:39:05;;;;;;;9.30;8.30;;;;;;;20.70;62.08;97497.19;10468936;28;20115;-70
2023/05/23 11:44:26;;;;;;;10.40;8.45;;;;;;;21.39;60.76;97493.09;10468841;28;20502;-70
2023/05/23 11:49:47;;;;;;;10.15;8.20;;;;;;;22.28;60.53;97501.91;10468933;28;20120;-70
2023/05/23 11:55:08;;;;;;;9.18;8.27;;;;;;;23.54;58.01;97506.69;10468748;28;20045;-70
2023/05/23 12:00:30;;;;;;;11.82;7.82;;;;;;;25.46;55.25;97497.75;10482440;28;20044;-70
2023/05/23 12:05:51;;;;;;;11.13;7.63;;;;;;;26.69;52.46;97510.28;10482141;28;20128;-70
2023/05/23 12:11:13;;;;;;;8.48;7.28;;;;;;;27.50;47.31;97490.09;10468349;28;20052;-70
2023/05/23 12:16:35;;;;;;;8.90;7.43;;;;;;;28.34;45.68;97484.00;10497051;28;20471;-70
2023/05/23 12:21:57;;;;;;;8.85;6.30;;;;;;;29.34;42.66;97493.19;10468027;28;20045;-70
2023/05/23 12:27:18;;;;;;;7.20;6.50;;;;;;;29.56;40.19;97488.66;10455292;28;20063;-70
2023/05/23 12:32:41;;;;;;;6.75;6.00;;;;;;;29.22;39.83;97481.81;10489979;28;20048;-70
2023/05/23 12:38:05;;;;;;;8.55;5.65;;;;;;;29.56;38.46;97488.66;10476020;28;20040;-71
2023/05/23 12:43:26;;;;;;;10.73;6.63;;;;;;;29.15;37.45;97488.38;10475969;28;20070;-71
2023/05/23 12:48:48;;;;;;;6.57;5.93;;;;;;;28.22;37.35;97496.97;10461452;28;20493;-71
2023/05/23 12:54:10;;;;;;;;;;;;;;;27.24;38.22;97496.66;10462215;28;20513;-71
2023/05/23 12:59:31;;;;;;;6.05;5.32;;;;;;;26.94;38.18;97500.25;10474619;28;19928;-70
2023/05/23 13:04:52;;;;;;;7.53;4.68;;;;;;;25.48;39.69;97514.19;10488244;28;20115;-71
2023/05/23 13:10:12;;;;;;;5.75;4.65;;;;;;;25.17;40.82;97501.88;10460669;28;20052;-71
2023/05/23 13:15:33;;;;;;;8.13;4.30;;;;;;;25.34;41.12;97501.28;10487988;28;20399;-70
2023/05/23 13:20:54;;;;;;;5.95;4.55;;;;;;;26.23;41.21;97497.31;10503124;28;20474;-70
2023/05/23 13:26:16;;;;;;;6.32;5.00;;;;;;;26.15;40.98;97495.19;10473816;28;20044;-70
2023/05/23 13:31:37;;;;;;;5.20;4.70;;;;;;;25.84;40.54;97496.50;10473974;28;20182;-70
2023/05/23 13:36:59;;;;;;;5.88;4.55;;;;;;;25.66;40.90;97491.41;10473262;28;20041;-71
2023/05/23 13:42:20;;;;;;;5.55;4.65;;;;;;;25.33;40.90;97494.13;10472382;28;20044;-70
2023/05/23 13:47:41;;;;;;;6.45;4.20;;;;;;;25.29;42.03;97496.97;10501984;28;20106;-70
2023/05/23 13:53:02;;;;;;;6.18;5.07;;;;;;;24.53;42.79;97497.84;10486630;28;20040;-70
2023/05/23 13:58:23;;;;;;;6.95;5.90;;;;;;;24.50;43.22;97504.94;10486551;28;20047;-71
2023/05/23 14:03:44;;;;;;;6.15;5.55;;;;;;;24.24;43.62;97500.41;10471600;28;20053;-70
2023/05/23 14:09:05;;;;;;;8.02;6.28;;;;;;;24.37;43.90;97491.97;10485824;28;20047;-70
2023/05/23 14:14:27;;;;;;;11.18;6.22;;;;;;;24.93;43.27;97499.56;10457771;28;20406;-70
2023/05/23 14:19:48;;;;;;;6.80;5.50;;;;;;;24.86;42.73;97486.66;10500036;28;20052;-70
2023/05/23 14:25:10;;;;;;;9.80;5.65;;;;;;;24.57;43.20;97488.59;10485031;28;20040;-70
2023/05/23 14:30:31;;;;;;;7.82;5.95;;;;;;;25.05;42.05;97496.81;10485099;28;20045;-70
2023/05/23 14:35:52;;;;;;;7.07;5.10;;;;;;;25.00;42.12;97501.78;10470803;28;20051;-71
2023/05/23 14:41:14;;;;;;;7.63;5.22;;;;;;;24.94;41.55;97509.56;10470596;28;20052;-70
2023/05/23 14:46:36;;;;;;;8.50;4.40;;;;;;;24.59;42.09;97514.28;10470150;28;20501;-70
2023/05/23 14:51:58;;;;;;;4.17;2.90;;;;;;;24.27;41.63;97515.41;10455157;28;20455;-70
2023/05/23 14:57:19;;;;;;;4.90;2.53;;;;;;;24.09;41.18;97520.91;10483637;28;20071;-70
2023/05/23 15:02:40;;;;;;;5.25;1.80;;;;;;;24.02;40.55;97525.09;10483391;28;20056;-70
2023/05/23 15:08:02;;;;;;;5.45;1.50;;;;;;;23.70;40.59;97524.03;10469558;28;20051;-70
2023/05/23 15:13:23;;;;;;;2.77;1.17;;;;;;;23.02;40.72;97521.66;10456015;28;20548;-70
2023/05/23 15:18:44;;;;;;;4.45;1.08;;;;;;;22.72;40.96;97543.91;10497869;28;20040;-70
2023/05/23 15:24:07;;;;;;;3.33;1.35;;;;;;;22.47;40.88;97534.97;10482878;28;20120;-70
2023/05/23 15:29:29;;;;;;;4.88;1.20;;;;;;;22.24;41.30;97541.66;10469407;28;20060;-70
2023/05/23 15:34:50;;;;;;;2.58;1.20;;;;;;;22.11;41.61;97543.56;10468825;28;20402;-70
2023/05/23 15:40:11;;;;;;;3.08;1.45;;;;;;;21.63;42.29;97544.00;10468450;28;20040;-70
2023/05/23 15:45:32;;;;;;;2.38;1.30;;;;;;;21.28;43.03;97551.06;10482181;28;20064;-70
2023/05/23 15:50:53;;;;;;;2.92;1.10;;;;;;;21.00;43.83;97539.03;10468087;28;20048;-70
2023/05/23 15:56:14;;;;;;;2.83;1.15;;;;;;;21.01;44.33;97544.03;10468130;28;20040;-70
2023/05/23 16:01:35;;;;;;;2.85;0.90;;;;;;;21.25;44.55;97557.34;10481250;28;20087;-70
2023/05/23 16:06:56;;;;;;;3.00;1.02;;;;;;;21.48;44.85;97567.09;10462354;28;20051;-70
2023/05/23 16:12:17;;;;;;;1.83;1.27;;;;;;;21.48;44.42;97561.41;10490141;28;20040;-70
2023/05/23 16:17:38;;;;;;;2.40;1.10;;;;;;;21.20;44.80;97576.38;10504899;28;20048;-70
2023/05/23 16:23:00;;;;;;;2.85;1.35;;;;;;;21.07;45.60;97566.16;10475787;28;20040;-70
2023/05/23 16:28:21;;;;;;;2.03;1.40;;;;;;;20.93;45.91;97574.31;10475737;28;20444;-70
2023/05/23 16:33:43;;;;;;;1.60;0.70;;;;;;;20.60;46.39;97576.34;10475589;28;20048;-70
2023/05/23 16:39:04;;;;;;;2.08;1.10;;;;;;;20.29;46.74;97575.53;10489204;28;20470;-70
2023/05/23 16:44:26;;;;;;;1.25;0.75;;;;;;;20.08;47.37;97584.88;10488778;28;20063;-70
2023/05/23 16:49:47;;;;;;;1.65;0.80;;;;;;;19.90;47.98;97592.88;10474680;28;20106;-70
2023/05/23 16:55:09;;;;;;;3.13;1.52;;;;;;;19.67;49.31;97595.03;10488686;28;20379;-70
2023/05/23 17:00:30;;;;;;;1.77;0.50;;;;;;;19.50;49.09;97600.88;10488302;28;20355;-70
2023/05/23 17:05:52;;;;;;;2.25;0.43;;;;;;;19.06;49.98;97598.81;10488365;28;20052;-70
2023/05/23 17:11:13;;;;;;;0.85;0.38;;;;;;;18.73;51.62;97607.63;10474264;28;20059;-70
2023/05/23 17:16:40;;;;;;;1.48;0.40;;;;;;;18.44;52.07;97611.56;10487766;28;20052;-70
2023/05/23 17:22:02;;;;;;;1.05;0.45;;;;;;;18.25;53.01;97605.28;10473676;28;20454;-70
2023/05/23 17:27:27;;;;;;;1.40;0.50;;;;;;;18.31;53.91;97610.41;10475235;28;20482;-70
2023/05/23 17:32:48;;;;;;;0.93;0.40;;;;;;;18.36;53.67;97620.47;10502541;28;20049;-69
2023/05/23 17:38:09;;;;;;;1.00;0.38;;;;;;;18.37;54.02;97624.75;10487088;28;20049;-69
2023/05/23 17:43:30;;;;;;;1.13;0.30;;;;;;;18.34;54.18;97634.53;10459355;28;20047;-69
2023/05/23 17:48:51;;;;;;;1.50;0.30;;;;;;;18.29;54.53;97644.25;10458668;28;20044;-69
2023/05/23 17:54:12;;;;;;;0.50;0.20;;;;;;;18.13;55.42;97641.53;10472451;28;20044;-69
2023/05/23 17:59:32;;;;;;;0.40;0.20;;;;;;;17.78;55.58;97653.69;10486500;28;20116;-69
2023/05/23 18:04:53;;;;;;;0.90;0.20;;;;;;;17.48;56.46;97652.50;10472490;28;20060;-72
2023/05/23 18:10:14;;;;;;;0.40;0.20;;;;;;;17.25;57.20;97645.94;10458222;28;20064;-71
2023/05/23 18:15:35;;;;;;;1.90;0.30;;;;;;;17.05;58.07;97653.59;10472099;28;20120;-72
2023/05/23 18:20:55;;;;;;;0.68;0.25;;;;;;;16.83;59.37;97650.59;10485860;28;20040;-71
2023/05/23 18:26:16;;;;;;;1.45;0.30;;;;;;;16.67;59.87;97659.06;10457618;28;20108;-71
2023/05/23 18:31:37;;;;;;;0.47;0.20;;;;;;;16.57;60.32;97669.91;10471366;28;20116;-71
2023/05/23 18:36:57;;;;;;;1.65;0.50;;;;;;;16.50;60.94;97685.09;10499981;28;20072;-71
2023/05/23 18:42:18;;;;;;;1.58;0.52;;;;;;;16.39;61.07;97698.00;10484830;28;20075;-71
2023/05/23 18:47:39;;;;;;;2.50;0.60;;;;;;;16.32;61.87;97704.75;10457313;28;20040;-71
2023/05/23 18:53:00;;;;;;;2.90;0.98;;;;;;;16.21;62.35;97714.84;10470581;28;20112;-71
2023/05/23 18:58:21;;;;;;;0.95;0.50;;;;;;;16.16;62.23;97732.91;10484616;28;20455;-71
2023/05/23 19:03:43;;;;;;;2.42;0.65;;;;;;;16.04;62.40;97740.81;10469904;28;20048;-71
2023/05/23 19:09:08;;;;;;;1.55;0.55;;;;;;;15.98;62.71;97746.16;10456886;28;20079;-71
2023/05/23 19:14:29;;;;;;;1.63;0.60;;;;;;;15.93;62.48;97741.69;10470176;28;20076;-70
2023/05/23 19:19:50;;;;;;;1.40;0.80;;;;;;;15.77;62.83;97752.19;10483764;28;20390;-71
2023/05/23 19:25:11;;;;;;;2.30;0.90;;;;;;;15.68;63.30;97762.31;10483645;28;20452;-71
2023/05/23 19:30:32;;;;;;;1.85;1.00;;;;;;;15.50;64.29;97767.78;10455813;28;20075;-71
2023/05/23 19:35:52;;;;;;;1.83;0.90;;;;;;;15.45;64.47;97774.56;10498337;28;20116;-71
2023/05/23 19:41:13;;;;;;;1.13;0.60;;;;;;;15.40;64.06;97772.91;10482378;28;20068;-70
2023/05/23 19:46:33;;;;;;;2.08;1.00;;;;;;;15.35;64.64;97786.06;10482921;28;20115;-71
2023/05/23 19:51:54;;;;;;;1.80;0.70;;;;;;;15.35;64.80;97786.06;10482697;28;20120;-70
2023/05/23 19:57:15;;;;;;;2.78;1.23;;;;;;;15.25;64.94;97787.59;10468826;28;20112;-70
2023/05/23 20:02:36;;;;;;;1.33;0.90;;;;;;;15.11;65.78;97802.41;10454877;28;20075;-71
2023/05/23 20:07:56;;;;;;;3.33;1.20;;;;;;;15.17;66.04;97816.78;10482604;28;20036;-70
2023/05/23 20:13:17;;;;;;;1.58;0.90;;;;;;;15.19;65.90;97807.72;10483101;28;20067;-70
2023/05/23 20:18:38;;;;;;;1.90;0.65;;;;;;;15.09;66.24;97813.56;10482342;28;20604;-71
2023/05/23 20:23:58;;;;;;;0.70;0.50;;;;;;;14.96;66.23;97825.56;10482299;28;20037;-70
2023/05/23 20:29:19;;;;;;;1.83;0.50;;;;;;;14.78;66.27;97838.66;10482148;28;20470;-70
2023/05/23 20:34:40;;;;;;;0.57;0.20;;;;;;;14.70;66.66;97838.22;10497175;28;20082;-70
2023/05/23 20:40:00;;;;;;;0.40;0.20;;;;;;;14.65;66.50;97842.88;10482277;28;20166;-70
2023/05/23 20:45:21;;;;;;;0.30;0.20;;;;;;;14.61;66.79;97839.88;10481822;28;20163;-71
2023/05/23 20:50:42;;;;;;;0.90;0.20;;;;;;;14.59;66.25;97839.75;10472332;28;20140;-70
2023/05/23 20:56:04;;;;;;;0.40;0.20;;;;;;;14.43;65.83;97848.00;10504126;28;20456;-71
2023/05/23 21:01:26;;;;;;;1.17;0.20;;;;;;;14.37;65.64;97853.28;10489089;28;20163;-71
2023/05/23 21:06:46;;;;;;;0.68;0.10;;;;;;;14.37;65.45;97842.06;10461063;28;20490;-70
2023/05/23 21:12:07;;;;;;;0.55;0.00;;;;;;;14.36;65.32;97853.91;10503764;28;20556;-71
2023/05/23 21:17:28;;;;;;;0.30;0.10;;;;;;;14.28;65.12;97851.38;10488445;28;20148;-70
2023/05/23 21:22:48;;;;;;;0.40;0.10;;;;;;;14.27;64.55;97856.28;10460473;28;20116;-71
2023/05/23 21:28:09;;;;;;;0.30;0.10;;;;;;;14.25;64.65;97847.03;10488417;28;20044;-71
2023/05/23 21:33:30;;;;;;;0.40;0.10;;;;;;;14.21;64.49;97846.81;10502799;28;20120;-70
2023/05/23 21:38:50;;;;;;;1.60;0.03;;;;;;;14.10;64.20;97853.94;10487680;28;20036;-71
2023/05/23 21:44:16;;;;;;;0.10;0.10;;;;;;;13.98;64.12;97850.44;10502359;28;20041;-71
2023/05/23 21:49:39;;;;;;;0.30;0.10;;;;;;;13.94;63.95;97859.38;10488159;28;20175;-71
2023/05/23 21:54:59;;;;;;;1.40;0.00;;;;;;;13.94;64.01;97869.88;10473683;28;20151;-70
2023/05/23 22:00:21;;;;;;;0.52;0.10;;;;;;;13.96;63.75;97873.50;10486222;28;20044;-70
2023/05/23 22:05:42;;;;;;;0.52;0.03;;;;;;;13.93;63.80;97883.16;10486595;28;20127;-71
2023/05/23 22:11:03;;;;;;;0.40;0.10;;;;;;;13.93;63.79;97894.41;10501407;28;20439;-70
2023/05/23 22:16:24;;;;;;;0.10;0.10;;;;;;;14.00;63.58;97901.81;10486414;28;20485;-71
2023/05/23 22:21:46;;;;;;;0.32;0.10;;;;;;;14.06;63.43;97907.03;10486017;28;20068;-71
2023/05/23 22:27:07;;;;;;;0.20;0.10;;;;;;;14.10;63.30;97909.34;10485912;28;20116;-71
2023/05/23 22:32:27;;;;;;;0.30;0.10;;;;;;;14.10;63.24;97904.47;10500316;28;20069;-71
2023/05/23 22:37:49;;;;;;;0.30;0.15;;;;;;;14.09;62.95;97903.00;10500089;28;20075;-71
2023/05/23 22:43:10;;;;;;;0.60;0.30;;;;;;;14.07;62.68;97900.06;10485257;28;20117;-71
2023/05/23 22:48:32;;;;;;;1.08;0.20;;;;;;;14.02;62.80;97898.41;10470970;28;20113;-71
2023/05/23 22:53:53;;;;;;;0.10;0.10;;;;;;;13.94;62.65;97909.88;10470814;28;20128;-70
2023/05/23 22:59:14;;;;;;;0.25;0.22;;;;;;;13.96;62.86;97898.03;10484567;28;20128;-71
2023/05/23 23:04:35;;;;;;;1.38;0.10;;;;;;;13.92;62.23;97917.47;10483917;28;20506;-71
2023/05/23 23:09:55;;;;;;;0.40;0.20;;;;;;;13.87;62.61;97922.09;10484082;28;20124;-71
2023/05/23 23:15:16;;;;;;;0.52;0.10;;;;;;;13.88;62.56;97922.81;10483150;28;20045;-71
2023/05/23 23:20:37;;;;;;;0.22;0.10;;;;;;;13.79;62.25;97927.25;10456240;28;20175;-70
2023/05/23 23:25:59;;;;;;;0.10;0.10;;;;;;;13.73;62.48;97936.06;10483594;28;20142;-70
2023/05/23 23:31:20;;;;;;;0.55;0.20;;;;;;;13.64;62.40;97936.19;10483550;28;20123;-70
2023/05/23 23:36:41;;;;;;;0.35;0.13;;;;;;;13.68;62.58;97931.53;10483182;28;20037;-71
2023/05/23 23:42:02;;;;;;;0.35;0.20;;;;;;;13.68;62.62;97942.03;10482989;28;20175;-71
2023/05/23 23:47:23;;;;;;;2.83;0.20;;;;;;;13.64;62.42;97928.50;10497991;28;20068;-71
2023/05/23 23:52:43;;;;;;;0.38;0.20;;;;;;;13.57;62.29;97939.97;10469152;28;20079;-71
2023/05/23 23:58:04;;;;;;;1.50;0.20;;;;;;;13.54;62.39;97941.94;10483266;28;20099;-71
